AirNav   Everest Fuels
 
 491 users online  

52CL Adelanto Airport
Adelanto, California, USA

GOING TO ADELANTO?


FAA INFORMATION EFFECTIVE 15 JULY 2021

Location

FAA Identifier: 52CL
Lat/Long: 34-32-14.9750N 117-27-38.1750W
34-32.249583N 117-27.636250W
34.5374931,-117.4606042
(estimated)
Elevation: 3075 ft. / 937 m (estimated)
Variation: 14E (1985)
From city: 4 miles SW of ADELANTO, CA
Time zone: UTC -7 (UTC -8 during Standard Time)
Zip code: 92301

Airport Operations

Airport use: Private use. Permission required prior to landing
Activation date: 03/1963
Control tower: no
ARTCC: LOS ANGELES CENTER
FSS: RIVERSIDE FLIGHT SERVICE STATION
Attendance: CONTINUOUS
Wind indicator: yes
Segmented circle: yes

Airport Communications

WX AWOS-3 at VCV (5 nm NE): 135.475 (760-246-3635)

Nearby radio navigation aids

VOR radial/distance  VOR name  Freq  Var
VCVr212/4.9VICTORVILLE VOR/DME109.0514E
EDWr141/29.9EDWARDS VORTAC116.4012E
PMDr086/30.3PALMDALE VORTAC114.5015E
POMr015/31.9POMONA VORTAC110.4015E
RALr345/(34.9)RIVERSIDE VOR112.4014E
PDZr350/37.3PARADISE VORTAC112.2015E

Airport Services

Airframe service: NONE
Powerplant service: NONE

Runway Information

Runway E/W

Dimensions: 5100 x 100 ft. / 1554 x 30 m
Surface: dirt
Operational restrictions: 1350' X 30' ASPHALT ON EAST END
RUNWAY E  RUNWAY W
Traffic pattern: rightleft
Displaced threshold: 300 ft.300 ft.
Obstructions: 3 ft. fence, marked, 20 ft. from runway3 ft. fence, marked, 20 ft. from runway

Runway N/S

Dimensions: 3930 x 100 ft. / 1198 x 30 m
Surface: dirt
RUNWAY N  RUNWAY S
Traffic pattern: leftright
Displaced threshold: 300 ft.300 ft.
Obstructions: 150 ft. pline, marked, 2600 ft. from runway200 ft. pline, marked, 5200 ft. from runway

Airport Ownership and Management from official FAA records

Ownership: Privately-owned
Owner: ADELANTO ARPT PROPERTY OWNERS ASSN
PO BOX 1102
ADELANTO, CA 92301
Phone (760) 963-8290
Manager: CHARLES LAIRD
9090 CACTUS ROAD
ADELANTO, CA 92301

Airport Operational Statistics

Aircraft based on the field: 21
Single engine airplanes: 15
Helicopters: 3
Gliders airplanes: 2
Ultralights: 1
    

Additional Remarks

CLEARALL APCHS WITH GEORGE AFB ON UNICOM 124.05 FOR CONFLICTING TRAFFIC.
RY NORTH & RY SOUTH FENCE - MARKED - 3 FT HGT 20 FT FM RY END.
(02) CHECK WITH TOWER AT GEORGE AFB FOR CONFLICTING TRAFFIC
FOR CD CTC JOSHUA APCH AT 661-277-3843.

Instrument Procedures

There are no published instrument procedures at 52CL.

Some nearby airports with instrument procedures:

KVCV - Southern California Logistics Airport (5 nm NE)
KAPV - Apple Valley Airport (14 nm E)
KCCB - Cable Airport (28 nm SW)
KSBD - San Bernardino International Airport (29 nm SE)
KONT - Ontario International Airport (30 nm S)
 
Loc | Ops | Rwys | IFR | FBO | Links
Com | Nav | Svcs | Stats | Notes

San Bernardino International Airport Authority
 
Area around 52CL (Adelanto Airport)
 
Road maps at: MapQuest Bing Google
 
Aerial photo
WARNING: Photo may not be current or correct
Aerial photo of 52CL (Adelanto Airport)
Do you have a better or more recent aerial photo of Adelanto Airport that you would like to share? If so, please send us your photo.

 
Sectional chart

 
Airport distance calculator
Flying to Adelanto Airport? Find the distance to fly.

From to 52CL

Sunrise and sunset
Times for 02-Aug-2021
 Local
(UTC-7)
 Zulu
(UTC)
Morning civil twilight05:3412:34
Sunrise06:0213:02
Sunset19:5002:50
Evening civil twilight20:1803:18

Current date and time
Zulu (UTC)  03-Aug-2021 06:56:21
Local (UTC-7)  02-Aug-2021 23:56:21
 
METAR
KVCV 
5nm NE 
022345Z AUTO 16006G13KT 10SM CLR 39/02 A3004 RMK DA6100
KGXA 
11nm W 
030558Z AUTO VRB03KT 10SM CLR 26/M02 A3007 RMK AO2 SLP143 WND DATA ESTMD T02551021 10387 20255 52013
TAF
KSBD 
29nm SE 
030520Z 0306/0406 VRB04KT P6SM SKC FM032100 26011KT P6SM SKC FM040400 VRB04KT P6SM SKC
KEDW 
29nm NW 
022200Z 0222/0403 VRB06KT 9999 SKC QNH3001INS BECMG 0222/0223 24012G18KT 9999 SKC QNH2999INS BECMG 0303/0304 23012KT 9999 SKC QNH3003INS BECMG 0306/0307 VRB06KT 9999 SKC QNH3003INS BECMG 0323/0324 24012G18KT 9999 SKC QNH2994INS TX41/0223Z TN22/0313Z LAST NO AMDS AFT 0222 NEXT 0313
KONT 
30nm S 
030520Z 0306/0412 VRB04KT P6SM SKC FM032000 26014KT P6SM SKC FM040400 VRB04KT P6SM SKC
KPMD 
31nm W 
030530Z 0306/0406 25005KT P6SM SKC FM030800 20008KT P6SM SKC FM031300 VRB03KT P6SM SKC FM032300 24012G18KT P6SM SKC FM040200 24012KT P6SM SKC FM040500 24006KT P6SM SKC
NOTAMs
Click for the latest NOTAMs
NOTAMs are issued by the DoD/FAA and will open in a separate window not controlled by AirNav.

 

 
 

Would you like to see your business listed on this page?

 If your business provides an interesting product or service to pilots, flight crews, aircraft, or users of the Adelanto Airport, you should consider listing it here.  To start the listing process, click on the button below
 
Add a business
 

Other Pages about Adelanto Airport

www.adelantoairport.com
 
Update a link
 
Copyright © AirNav, LLC. All rights reserved. Privacy Policy  Contact